• Join FlightAware (Why Join?)
  • Login
  • US Flag 
02:03AM EDT


 

Airport Tracker/Info


-or-


 

Live Flight TrackerFlight Track Log ✈ EJA951 ✈ 24-May-2013 ✈ KMCO - KFLL

Flight Track Log - Related Links

Times and Time Zones

All times are in EDT time to prevent confusion due to time zone crossing. See the EJA951 flight status page for this flight to view local times or setup timezone preferences in your user account.

Time Position Orientation Groundspeed Altitude Reporting Facility
EDT Latitude Longitude Course Direction KTS MPH feet Rate Location/Type
10:13AM 28.4500 -81.3333 60° Northeast 164 189 900  Level Orlando TRACON
10:15AM 28.5000 -81.2333 60° Northeast 271 312 4,800 1,560 Climbing Orlando TRACON
10:16AM 28.5167 -81.1500 77° East 282 325 5,000 1,380 Climbing Orlando TRACON
10:17AM 28.5167 -81.0667 90° East 276 318 7,600 2,760 Climbing Orlando TRACON
10:19AM 28.4139 -80.9400 133° Southeast 301 346 13,200 2,400 Climbing Miami Center
10:20AM 28.3431 -80.8619 136° Southeast 319 367 14,800 1,200 Climbing Miami Center
10:21AM 28.2678 -80.7908 140° Southeast 367 422 15,600 1,200 Climbing Miami Center
10:22AM 28.1719 -80.7028 141° Southeast 403 464 17,300 1,500 Climbing Miami Center
10:23AM 28.0825 -80.6150 139° Southeast 414 476 18,700 1,320 Climbing Miami Center
10:24AM 28.0014 -80.5253 136° Southeast 419 482 20,000 1,260 Climbing Miami Center
10:25AM 27.9261 -80.4431 136° Southeast 419 482 21,300 1,260 Climbing Miami Center
10:26AM 27.8264 -80.3364 137° Southeast 432 497 22,600 840 Climbing Miami Center
10:27AM 27.7328 -80.2350 136° Southeast 445 512 23,000 180 Climbing Miami Center
10:28AM 27.6328 -80.1383 139° Southeast 469 540 23,000  Level Miami Center
10:29AM 27.5133 -80.0717 154° Southeast 475 547 23,000  Level Miami Center
10:30AM 27.3956 -80.0147 157° South 468 539 23,000  Level Miami Center
10:31AM 27.2778 -79.9553 156° South 463 533 23,000 -240 Level Miami Center
10:32AM 27.1619 -79.8964 156° South 458 527 22,600 -1,080 Descending Miami Center
10:33AM 27.0506 -79.8350 154° Southeast 450 518 20,900 -1,680 Descending Miami Center
10:34AM 26.9389 -79.7811 157° South 444 511 19,300 -1,620 Descending Miami Center
10:35AM 26.8417 -79.7297 155° Southeast 433 498 17,700 -2,100 Descending Miami Center
10:36AM 26.7189 -79.7058 170° South 385 443 15,100 -2,400 Descending Miami Center
10:37AM 26.6369 -79.7386 200° South 363 418 12,900 -2,400 Descending Miami Center
10:38AM 26.5461 -79.7828 204° Southwest 335 386 10,400 -2,520 Descending Miami Center
10:38AM 26.5208 -79.7914 197° South 321 369 9,800 -2,040 Descending Miami Center
10:39AM 26.4767 -79.8136 204° Southwest 313 360 8,400 -1,800 Descending Miami Center
10:39AM 26.4450 -79.8314 207° Southwest 288 331 8,000 -420 Descending Miami Center
10:40AM 26.3944 -79.8533 201° Southwest 295 339 8,000 -600 Level Miami Center
10:41AM 26.3289 -79.8817 201° Southwest 290 334 7,000 -1,440 Descending Miami Center
10:42AM 26.2511 -79.9122 199° South 285 328 5,200 -1,680 Descending Miami Center
10:42AM 26.2258 -79.9208 197° South 227 261 4,800 -1,200 Descending Miami Center
10:43AM 26.1883 -79.9222 182° South 257 296 4,000 -1,380 Descending Miami Center
10:43AM 26.1653 -79.9217 179° South 217 250 3,400 -1,620 Descending Miami Center
10:44AM 26.1300 -79.9136 168° South 231 266 2,400 -1,380 Descending Miami Center
10:44AM 26.1067 -79.9269 207° Southwest 210 242 2,000 -540 Descending Miami Center
10:45AM 26.0936 -79.9522 240° Southwest 181 208 1,900  Descending Miami Center
10:45AM 26.0806 -79.9794 242° Southwest 182 209 2,000 60 Climbing Miami Center
10:46AM 26.0736 -80.0025 251° West 170 196 2,000 -120 Level Miami Center
10:46AM 26.0753 -80.0281 274° West 155 178 1,900 -600 Descending Miami Center
10:48AM 26.0742 -80.0719 268° West 148 170 1,200 -720 Descending Miami Center
10:49AM 26.0753 -80.1181 272° West 139 160 500 -720 Descending Miami Center
10:51AM 26.0726 -80.1527 275° West  Level Estimated